Monte Alto, Texas
Current Conditions -  °F | °C
As of 7:15 PM on Sunday 23 Nov 2014 (Local Time) from KT65 Reporting Station
Clear Clear  
Wind Chill: 69°   Ceiling: Unl
Heat Index: 69°   Visibility: 10mi
Dew Point: 53°   Wind: 6mph
Humidity: 58%   Direction: 160°SSE
Pressure: 29.66"   Gusts: NA
Location:  26.3131°N, 97.9381°W
Report Text: KT65 240115Z AUTO 16005KT 10SM CLR 21/12 A2966 RMK AO2 T02050119
Loading
Personal Weather Stations






























Interactive Weather Map New forecast layout! Learn more

10-Day Weather Forecast

Advertisements
Track Severe Weather on mobile